sensor_id;sensor_type;location;lat;lon;timestamp;temperature;humidity
25332;DHT22;13284;52.748;13.452;2023-10-19T00:00:40;7.20;99.90
25332;DHT22;13284;52.748;13.452;2023-10-19T00:03:09;7.20;99.90
25332;DHT22;13284;52.748;13.452;2023-10-19T00:05:35;7.30;99.90
25332;DHT22;13284;52.748;13.452;2023-10-19T00:08:02;7.20;99.90
25332;DHT22;13284;52.748;13.452;2023-10-19T00:10:41;7.20;99.90
25332;DHT22;13284;52.748;13.452;2023-10-19T00:13:14;7.20;99.90
25332;DHT22;13284;52.748;13.452;2023-10-19T00:15:41;7.20;99.90
25332;DHT22;13284;52.748;13.452;2023-10-19T00:18:12;7.20;99.90
25332;DHT22;13284;52.748;13.452;2023-10-19T00:20:42;7.20;99.90
25332;DHT22;13284;52.748;13.452;2023-10-19T00:23:12;7.20;99.90
25332;DHT22;13284;52.748;13.452;2023-10-19T00:25:44;7.20;99.90
25332;DHT22;13284;52.748;13.452;2023-10-19T00:28:19;7.20;99.90
25332;DHT22;13284;52.748;13.452;2023-10-19T00:30:45;7.20;99.90
25332;DHT22;13284;52.748;13.452;2023-10-19T00:33:12;7.20;99.90
25332;DHT22;13284;52.748;13.452;2023-10-19T00:35:45;7.20;99.90
25332;DHT22;13284;52.748;13.452;2023-10-19T00:38:44;7.10;99.90
25332;DHT22;13284;52.748;13.452;2023-10-19T00:41:23;7.10;99.90
25332;DHT22;13284;52.748;13.452;2023-10-19T00:43:55;7.20;99.90
25332;DHT22;13284;52.748;13.452;2023-10-19T00:46:32;7.10;99.90
25332;DHT22;13284;52.748;13.452;2023-10-19T00:49:03;7.20;99.90
25332;DHT22;13284;52.748;13.452;2023-10-19T00:51:44;7.10;99.90
25332;DHT22;13284;52.748;13.452;2023-10-19T00:54:25;7.10;99.90
25332;DHT22;13284;52.748;13.452;2023-10-19T00:56:56;7.10;99.90
25332;DHT22;13284;52.748;13.452;2023-10-19T00:59:24;7.10;99.90
25332;DHT22;13284;52.748;13.452;2023-10-19T01:01:56;7.10;99.90
25332;DHT22;13284;52.748;13.452;2023-10-19T01:04:40;7.10;99.90
25332;DHT22;13284;52.748;13.452;2023-10-19T01:07:09;7.10;99.90
25332;DHT22;13284;52.748;13.452;2023-10-19T01:09:44;7.10;99.90
25332;DHT22;13284;52.748;13.452;2023-10-19T01:12:10;7.10;99.90
25332;DHT22;13284;52.748;13.452;2023-10-19T01:17:40;7.10;99.90
25332;DHT22;13284;52.748;13.452;2023-10-19T01:20:07;7.10;99.90
25332;DHT22;13284;52.748;13.452;2023-10-19T01:23:06;7.10;99.90
25332;DHT22;13284;52.748;13.452;2023-10-19T01:28:07;7.10;99.90
25332;DHT22;13284;52.748;13.452;2023-10-19T01:30:34;7.10;99.90
25332;DHT22;13284;52.748;13.452;2023-10-19T01:33:02;7.10;99.90
25332;DHT22;13284;52.748;13.452;2023-10-19T01:35:28;7.10;99.90
25332;DHT22;13284;52.748;13.452;2023-10-19T01:38:13;7.10;99.90
25332;DHT22;13284;52.748;13.452;2023-10-19T01:40:39;7.00;99.90
25332;DHT22;13284;52.748;13.452;2023-10-19T01:43:11;7.00;99.90
25332;DHT22;13284;52.748;13.452;2023-10-19T01:45:46;7.00;99.90
25332;DHT22;13284;52.748;13.452;2023-10-19T01:48:12;7.00;99.90
25332;DHT22;13284;52.748;13.452;2023-10-19T01:50:39;7.00;99.90
25332;DHT22;13284;52.748;13.452;2023-10-19T01:53:05;7.00;99.90
25332;DHT22;13284;52.748;13.452;2023-10-19T01:55:38;7.00;99.90
25332;DHT22;13284;52.748;13.452;2023-10-19T01:58:04;7.00;99.90
25332;DHT22;13284;52.748;13.452;2023-10-19T02:00:29;7.00;99.90
25332;DHT22;13284;52.748;13.452;2023-10-19T02:02:56;7.00;99.90
25332;DHT22;13284;52.748;13.452;2023-10-19T02:05:22;7.00;99.90
25332;DHT22;13284;52.748;13.452;2023-10-19T02:07:49;7.00;99.90
25332;DHT22;13284;52.748;13.452;2023-10-19T02:10:14;7.00;99.90
25332;DHT22;13284;52.748;13.452;2023-10-19T02:12:41;6.90;99.90
25332;DHT22;13284;52.748;13.452;2023-10-19T02:15:08;7.00;99.90
25332;DHT22;13284;52.748;13.452;2023-10-19T02:17:34;6.90;99.90
25332;DHT22;13284;52.748;13.452;2023-10-19T02:19:59;6.90;99.90
25332;DHT22;13284;52.748;13.452;2023-10-19T02:22:25;6.90;99.90
25332;DHT22;13284;52.748;13.452;2023-10-19T02:24:50;6.90;99.90
25332;DHT22;13284;52.748;13.452;2023-10-19T02:27:16;6.90;99.90
25332;DHT22;13284;52.748;13.452;2023-10-19T02:29:41;6.90;99.90
25332;DHT22;13284;52.748;13.452;2023-10-19T02:32:07;7.00;99.90
25332;DHT22;13284;52.748;13.452;2023-10-19T02:34:33;6.90;99.90
25332;DHT22;13284;52.748;13.452;2023-10-19T02:37:00;6.90;99.90
25332;DHT22;13284;52.748;13.452;2023-10-19T02:39:26;6.90;99.90
25332;DHT22;13284;52.748;13.452;2023-10-19T02:41:54;6.90;99.90
25332;DHT22;13284;52.748;13.452;2023-10-19T02:44:21;7.00;99.90
25332;DHT22;13284;52.748;13.452;2023-10-19T02:46:52;7.00;99.90
25332;DHT22;13284;52.748;13.452;2023-10-19T02:49:21;6.90;99.90
25332;DHT22;13284;52.748;13.452;2023-10-19T02:51:48;7.00;99.90
25332;DHT22;13284;52.748;13.452;2023-10-19T02:54:16;6.90;99.90
25332;DHT22;13284;52.748;13.452;2023-10-19T02:56:57;7.00;99.90
25332;DHT22;13284;52.748;13.452;2023-10-19T02:59:26;7.00;99.90
25332;DHT22;13284;52.748;13.452;2023-10-19T03:01:55;7.00;99.90
25332;DHT22;13284;52.748;13.452;2023-10-19T03:04:39;7.00;99.90
25332;DHT22;13284;52.748;13.452;2023-10-19T03:07:07;7.00;99.90
25332;DHT22;13284;52.748;13.452;2023-10-19T03:09:33;7.00;99.90
25332;DHT22;13284;52.748;13.452;2023-10-19T03:12:01;7.00;99.90
25332;DHT22;13284;52.748;13.452;2023-10-19T03:14:37;7.00;99.90
25332;DHT22;13284;52.748;13.452;2023-10-19T03:17:03;7.00;99.90
25332;DHT22;13284;52.748;13.452;2023-10-19T03:19:30;7.00;99.90
25332;DHT22;13284;52.748;13.452;2023-10-19T03:21:56;7.00;99.90
25332;DHT22;13284;52.748;13.452;2023-10-19T03:24:25;7.00;99.90
25332;DHT22;13284;52.748;13.452;2023-10-19T03:27:14;7.00;99.90
25332;DHT22;13284;52.748;13.452;2023-10-19T03:29:49;7.00;99.90
25332;DHT22;13284;52.748;13.452;2023-10-19T03:32:20;7.00;99.90
25332;DHT22;13284;52.748;13.452;2023-10-19T03:34:51;7.00;99.90
25332;DHT22;13284;52.748;13.452;2023-10-19T03:37:24;7.00;99.90
25332;DHT22;13284;52.748;13.452;2023-10-19T03:39:50;7.00;99.90
25332;DHT22;13284;52.748;13.452;2023-10-19T03:42:16;7.00;99.90
25332;DHT22;13284;52.748;13.452;2023-10-19T03:44:42;7.00;99.90
25332;DHT22;13284;52.748;13.452;2023-10-19T03:47:18;7.00;99.90
25332;DHT22;13284;52.748;13.452;2023-10-19T03:49:50;7.00;99.90
25332;DHT22;13284;52.748;13.452;2023-10-19T03:52:16;7.00;99.90
25332;DHT22;13284;52.748;13.452;2023-10-19T03:54:41;6.90;99.90
25332;DHT22;13284;52.748;13.452;2023-10-19T03:57:08;7.00;99.90
25332;DHT22;13284;52.748;13.452;2023-10-19T03:59:38;6.90;99.90
25332;DHT22;13284;52.748;13.452;2023-10-19T04:02:04;6.90;99.90
25332;DHT22;13284;52.748;13.452;2023-10-19T04:04:45;6.90;99.90
25332;DHT22;13284;52.748;13.452;2023-10-19T04:07:17;6.90;99.90
25332;DHT22;13284;52.748;13.452;2023-10-19T04:09:53;6.90;99.90
25332;DHT22;13284;52.748;13.452;2023-10-19T04:12:29;6.90;99.90
25332;DHT22;13284;52.748;13.452;2023-10-19T04:14:55;6.90;99.90
25332;DHT22;13284;52.748;13.452;2023-10-19T04:17:34;6.90;99.90
25332;DHT22;13284;52.748;13.452;2023-10-19T04:20:01;6.90;99.90
25332;DHT22;13284;52.748;13.452;2023-10-19T04:22:34;6.90;99.90
25332;DHT22;13284;52.748;13.452;2023-10-19T04:25:00;6.80;99.90
25332;DHT22;13284;52.748;13.452;2023-10-19T04:27:26;6.90;99.90
25332;DHT22;13284;52.748;13.452;2023-10-19T04:29:52;6.90;99.90
25332;DHT22;13284;52.748;13.452;2023-10-19T04:32:17;6.90;99.90
25332;DHT22;13284;52.748;13.452;2023-10-19T04:34:52;6.90;99.90
25332;DHT22;13284;52.748;13.452;2023-10-19T04:37:18;6.90;99.90
25332;DHT22;13284;52.748;13.452;2023-10-19T04:39:44;6.90;99.90
25332;DHT22;13284;52.748;13.452;2023-10-19T04:42:10;6.90;99.90
25332;DHT22;13284;52.748;13.452;2023-10-19T04:44:35;7.00;99.90
25332;DHT22;13284;52.748;13.452;2023-10-19T04:47:01;6.90;99.90
25332;DHT22;13284;52.748;13.452;2023-10-19T04:49:26;7.00;99.90
25332;DHT22;13284;52.748;13.452;2023-10-19T04:51:53;7.00;99.90
25332;DHT22;13284;52.748;13.452;2023-10-19T04:54:19;6.90;99.90
25332;DHT22;13284;52.748;13.452;2023-10-19T04:56:44;7.00;99.90
25332;DHT22;13284;52.748;13.452;2023-10-19T04:59:10;6.90;99.90
25332;DHT22;13284;52.748;13.452;2023-10-19T05:01:35;6.90;99.90
25332;DHT22;13284;52.748;13.452;2023-10-19T05:04:02;6.80;99.90
25332;DHT22;13284;52.748;13.452;2023-10-19T05:06:28;6.90;99.90
25332;DHT22;13284;52.748;13.452;2023-10-19T05:08:53;6.90;99.90
25332;DHT22;13284;52.748;13.452;2023-10-19T05:11:19;6.90;99.90
25332;DHT22;13284;52.748;13.452;2023-10-19T05:13:44;6.90;99.90
25332;DHT22;13284;52.748;13.452;2023-10-19T05:16:10;6.80;99.90
25332;DHT22;13284;52.748;13.452;2023-10-19T05:18:35;6.90;99.90
25332;DHT22;13284;52.748;13.452;2023-10-19T05:21:01;6.90;99.90
25332;DHT22;13284;52.748;13.452;2023-10-19T05:23:27;6.80;99.90
25332;DHT22;13284;52.748;13.452;2023-10-19T05:25:59;6.90;99.90
25332;DHT22;13284;52.748;13.452;2023-10-19T05:28:25;6.80;99.90
25332;DHT22;13284;52.748;13.452;2023-10-19T05:30:51;6.80;99.90
25332;DHT22;13284;52.748;13.452;2023-10-19T05:33:17;6.80;99.90
25332;DHT22;13284;52.748;13.452;2023-10-19T05:35:47;6.90;99.90
25332;DHT22;13284;52.748;13.452;2023-10-19T05:38:12;6.90;99.90
25332;DHT22;13284;52.748;13.452;2023-10-19T05:40:38;6.80;99.90
25332;DHT22;13284;52.748;13.452;2023-10-19T05:43:04;6.90;99.90
25332;DHT22;13284;52.748;13.452;2023-10-19T05:45:30;6.80;99.90
25332;DHT22;13284;52.748;13.452;2023-10-19T05:47:57;6.90;99.90
25332;DHT22;13284;52.748;13.452;2023-10-19T05:50:24;6.90;99.90
25332;DHT22;13284;52.748;13.452;2023-10-19T05:52:50;6.90;99.90
25332;DHT22;13284;52.748;13.452;2023-10-19T05:55:17;6.80;99.90
25332;DHT22;13284;52.748;13.452;2023-10-19T05:57:43;6.90;99.90
25332;DHT22;13284;52.748;13.452;2023-10-19T06:00:11;6.90;99.90
25332;DHT22;13284;52.748;13.452;2023-10-19T06:02:45;6.90;99.90
25332;DHT22;13284;52.748;13.452;2023-10-19T06:05:13;6.80;99.90
25332;DHT22;13284;52.748;13.452;2023-10-19T06:07:41;6.80;99.90
25332;DHT22;13284;52.748;13.452;2023-10-19T06:10:07;6.80;99.90
25332;DHT22;13284;52.748;13.452;2023-10-19T06:12:32;6.80;99.90
25332;DHT22;13284;52.748;13.452;2023-10-19T06:14:59;6.70;99.90
25332;DHT22;13284;52.748;13.452;2023-10-19T06:17:26;6.70;99.90
25332;DHT22;13284;52.748;13.452;2023-10-19T06:19:52;6.60;99.90
25332;DHT22;13284;52.748;13.452;2023-10-19T06:22:17;6.70;99.90
25332;DHT22;13284;52.748;13.452;2023-10-19T06:24:43;6.60;99.90
25332;DHT22;13284;52.748;13.452;2023-10-19T06:27:09;6.70;99.90
25332;DHT22;13284;52.748;13.452;2023-10-19T06:29:35;6.60;99.90
25332;DHT22;13284;52.748;13.452;2023-10-19T06:32:00;6.70;99.90
25332;DHT22;13284;52.748;13.452;2023-10-19T06:34:26;6.70;99.90
25332;DHT22;13284;52.748;13.452;2023-10-19T06:36:52;6.70;99.90
25332;DHT22;13284;52.748;13.452;2023-10-19T06:39:19;6.70;99.90
25332;DHT22;13284;52.748;13.452;2023-10-19T06:41:46;6.70;99.90
25332;DHT22;13284;52.748;13.452;2023-10-19T06:44:12;6.70;99.90
25332;DHT22;13284;52.748;13.452;2023-10-19T06:46:38;6.70;99.90
25332;DHT22;13284;52.748;13.452;2023-10-19T06:49:05;6.70;99.90
25332;DHT22;13284;52.748;13.452;2023-10-19T06:51:30;6.60;99.90
25332;DHT22;13284;52.748;13.452;2023-10-19T06:53:58;6.60;99.90
25332;DHT22;13284;52.748;13.452;2023-10-19T06:56:27;6.70;99.90
25332;DHT22;13284;52.748;13.452;2023-10-19T06:58:52;6.60;99.90
25332;DHT22;13284;52.748;13.452;2023-10-19T07:01:25;6.60;99.90
25332;DHT22;13284;52.748;13.452;2023-10-19T07:03:56;6.70;99.90
25332;DHT22;13284;52.748;13.452;2023-10-19T07:06:22;6.60;99.90
25332;DHT22;13284;52.748;13.452;2023-10-19T07:08:47;6.70;99.90
25332;DHT22;13284;52.748;13.452;2023-10-19T07:11:13;6.60;99.90
25332;DHT22;13284;52.748;13.452;2023-10-19T07:13:38;6.60;99.90
25332;DHT22;13284;52.748;13.452;2023-10-19T07:16:05;6.70;99.90
25332;DHT22;13284;52.748;13.452;2023-10-19T07:18:31;6.60;99.90
25332;DHT22;13284;52.748;13.452;2023-10-19T07:20:56;6.60;99.90
25332;DHT22;13284;52.748;13.452;2023-10-19T07:23:28;6.50;99.90
25332;DHT22;13284;52.748;13.452;2023-10-19T07:25:56;6.60;99.90
25332;DHT22;13284;52.748;13.452;2023-10-19T07:28:25;6.60;99.90
25332;DHT22;13284;52.748;13.452;2023-10-19T07:30:52;6.60;99.90
25332;DHT22;13284;52.748;13.452;2023-10-19T07:33:20;6.60;99.90
25332;DHT22;13284;52.748;13.452;2023-10-19T07:35:47;6.60;99.90
25332;DHT22;13284;52.748;13.452;2023-10-19T07:38:13;6.70;99.90
25332;DHT22;13284;52.748;13.452;2023-10-19T07:40:43;6.80;99.90
25332;DHT22;13284;52.748;13.452;2023-10-19T07:43:14;6.70;99.90
25332;DHT22;13284;52.748;13.452;2023-10-19T07:45:40;6.70;99.90
25332;DHT22;13284;52.748;13.452;2023-10-19T07:48:06;6.70;99.90
25332;DHT22;13284;52.748;13.452;2023-10-19T07:50:38;6.70;99.90
25332;DHT22;13284;52.748;13.452;2023-10-19T07:53:06;6.80;99.90
25332;DHT22;13284;52.748;13.452;2023-10-19T07:55:31;6.80;99.90
25332;DHT22;13284;52.748;13.452;2023-10-19T07:58:04;6.90;99.90
25332;DHT22;13284;52.748;13.452;2023-10-19T08:00:45;6.90;99.90
25332;DHT22;13284;52.748;13.452;2023-10-19T08:03:24;7.00;99.90
25332;DHT22;13284;52.748;13.452;2023-10-19T08:05:50;7.00;99.90
25332;DHT22;13284;52.748;13.452;2023-10-19T08:08:16;7.00;99.90
25332;DHT22;13284;52.748;13.452;2023-10-19T08:10:42;7.10;99.90
25332;DHT22;13284;52.748;13.452;2023-10-19T08:13:14;7.00;99.90
25332;DHT22;13284;52.748;13.452;2023-10-19T08:15:40;7.10;99.90
25332;DHT22;13284;52.748;13.452;2023-10-19T08:18:05;7.30;99.90
25332;DHT22;13284;52.748;13.452;2023-10-19T08:20:36;7.30;99.90
25332;DHT22;13284;52.748;13.452;2023-10-19T08:23:04;7.30;99.90
25332;DHT22;13284;52.748;13.452;2023-10-19T08:25:31;7.30;99.90
25332;DHT22;13284;52.748;13.452;2023-10-19T08:28:06;7.40;99.90
25332;DHT22;13284;52.748;13.452;2023-10-19T08:30:32;7.40;99.90
25332;DHT22;13284;52.748;13.452;2023-10-19T08:33:41;7.50;99.90
25332;DHT22;13284;52.748;13.452;2023-10-19T08:36:16;7.50;99.90
25332;DHT22;13284;52.748;13.452;2023-10-19T08:38:42;7.60;99.90
25332;DHT22;13284;52.748;13.452;2023-10-19T08:41:08;7.50;99.90
25332;DHT22;13284;52.748;13.452;2023-10-19T08:43:34;7.50;99.90
25332;DHT22;13284;52.748;13.452;2023-10-19T08:46:11;7.70;99.90
25332;DHT22;13284;52.748;13.452;2023-10-19T08:48:38;7.70;99.90
25332;DHT22;13284;52.748;13.452;2023-10-19T08:51:09;7.60;99.90
25332;DHT22;13284;52.748;13.452;2023-10-19T08:53:37;7.60;99.90
25332;DHT22;13284;52.748;13.452;2023-10-19T08:56:06;7.60;99.90
25332;DHT22;13284;52.748;13.452;2023-10-19T08:58:33;7.50;99.90
25332;DHT22;13284;52.748;13.452;2023-10-19T09:00:59;7.50;99.90
25332;DHT22;13284;52.748;13.452;2023-10-19T09:03:32;7.50;99.90
25332;DHT22;13284;52.748;13.452;2023-10-19T09:06:01;7.60;99.90
25332;DHT22;13284;52.748;13.452;2023-10-19T09:08:27;7.60;99.90
25332;DHT22;13284;52.748;13.452;2023-10-19T09:11:09;7.60;99.90
25332;DHT22;13284;52.748;13.452;2023-10-19T09:13:44;7.50;99.90
25332;DHT22;13284;52.748;13.452;2023-10-19T09:16:19;7.50;99.90
25332;DHT22;13284;52.748;13.452;2023-10-19T09:18:49;7.50;99.90
25332;DHT22;13284;52.748;13.452;2023-10-19T09:21:16;7.50;99.90
25332;DHT22;13284;52.748;13.452;2023-10-19T09:23:57;7.60;99.90
25332;DHT22;13284;52.748;13.452;2023-10-19T09:26:24;7.70;99.90
25332;DHT22;13284;52.748;13.452;2023-10-19T09:28:52;7.80;99.90
25332;DHT22;13284;52.748;13.452;2023-10-19T09:31:19;7.80;99.90
25332;DHT22;13284;52.748;13.452;2023-10-19T09:33:47;7.70;99.90
25332;DHT22;13284;52.748;13.452;2023-10-19T09:36:14;7.80;99.90
25332;DHT22;13284;52.748;13.452;2023-10-19T09:38:50;7.90;99.90
25332;DHT22;13284;52.748;13.452;2023-10-19T09:41:18;7.90;99.90
25332;DHT22;13284;52.748;13.452;2023-10-19T09:43:46;7.90;99.90
25332;DHT22;13284;52.748;13.452;2023-10-19T09:46:36;7.90;99.90
25332;DHT22;13284;52.748;13.452;2023-10-19T09:49:02;8.00;99.90
25332;DHT22;13284;52.748;13.452;2023-10-19T09:51:28;8.10;99.90
25332;DHT22;13284;52.748;13.452;2023-10-19T09:53:58;8.20;99.90
25332;DHT22;13284;52.748;13.452;2023-10-19T09:56:49;8.20;99.90
25332;DHT22;13284;52.748;13.452;2023-10-19T09:59:38;8.30;99.90
25332;DHT22;13284;52.748;13.452;2023-10-19T10:02:07;8.30;99.90
25332;DHT22;13284;52.748;13.452;2023-10-19T10:04:33;8.40;99.90
25332;DHT22;13284;52.748;13.452;2023-10-19T10:07:00;8.40;99.90
25332;DHT22;13284;52.748;13.452;2023-10-19T10:09:26;8.50;99.90
25332;DHT22;13284;52.748;13.452;2023-10-19T10:11:55;8.60;99.90
25332;DHT22;13284;52.748;13.452;2023-10-19T10:14:28;8.70;99.90
25332;DHT22;13284;52.748;13.452;2023-10-19T10:17:04;8.50;99.90
25332;DHT22;13284;52.748;13.452;2023-10-19T10:19:30;8.50;99.90
25332;DHT22;13284;52.748;13.452;2023-10-19T10:22:16;8.60;99.90
25332;DHT22;13284;52.748;13.452;2023-10-19T10:24:46;8.40;99.90
25332;DHT22;13284;52.748;13.452;2023-10-19T10:27:16;8.60;99.90
25332;DHT22;13284;52.748;13.452;2023-10-19T10:29:59;8.70;99.90
25332;DHT22;13284;52.748;13.452;2023-10-19T10:35:08;8.70;99.90
25332;DHT22;13284;52.748;13.452;2023-10-19T10:37:36;8.80;99.90
25332;DHT22;13284;52.748;13.452;2023-10-19T10:40:02;8.80;99.90
25332;DHT22;13284;52.748;13.452;2023-10-19T10:42:29;8.80;99.90
25332;DHT22;13284;52.748;13.452;2023-10-19T10:44:54;8.70;99.90
25332;DHT22;13284;52.748;13.452;2023-10-19T10:47:22;8.70;99.90
25332;DHT22;13284;52.748;13.452;2023-10-19T10:49:55;8.60;99.90
25332;DHT22;13284;52.748;13.452;2023-10-19T10:54:49;8.50;99.90
25332;DHT22;13284;52.748;13.452;2023-10-19T10:57:15;8.50;99.90
25332;DHT22;13284;52.748;13.452;2023-10-19T10:59:41;8.40;99.90
25332;DHT22;13284;52.748;13.452;2023-10-19T11:02:19;8.50;99.90
25332;DHT22;13284;52.748;13.452;2023-10-19T11:04:47;8.70;99.90
25332;DHT22;13284;52.748;13.452;2023-10-19T11:07:19;8.80;99.90
25332;DHT22;13284;52.748;13.452;2023-10-19T11:09:48;8.80;99.90
25332;DHT22;13284;52.748;13.452;2023-10-19T11:12:14;8.70;99.90
25332;DHT22;13284;52.748;13.452;2023-10-19T11:14:54;8.80;99.90
25332;DHT22;13284;52.748;13.452;2023-10-19T11:17:19;8.60;99.90
25332;DHT22;13284;52.748;13.452;2023-10-19T11:19:49;8.60;99.90
25332;DHT22;13284;52.748;13.452;2023-10-19T11:22:15;8.50;99.90
25332;DHT22;13284;52.748;13.452;2023-10-19T11:24:40;8.40;99.90
25332;DHT22;13284;52.748;13.452;2023-10-19T11:27:06;8.50;99.90
25332;DHT22;13284;52.748;13.452;2023-10-19T11:29:37;8.60;99.90
25332;DHT22;13284;52.748;13.452;2023-10-19T11:32:03;8.50;99.90
25332;DHT22;13284;52.748;13.452;2023-10-19T11:34:28;8.70;99.90
25332;DHT22;13284;52.748;13.452;2023-10-19T11:36:56;8.70;99.90
25332;DHT22;13284;52.748;13.452;2023-10-19T11:39:27;8.70;99.90
25332;DHT22;13284;52.748;13.452;2023-10-19T11:41:54;8.90;99.90
25332;DHT22;13284;52.748;13.452;2023-10-19T11:44:19;8.80;99.90
25332;DHT22;13284;52.748;13.452;2023-10-19T11:46:45;8.90;99.90
25332;DHT22;13284;52.748;13.452;2023-10-19T11:49:11;8.80;99.90
25332;DHT22;13284;52.748;13.452;2023-10-19T11:51:37;8.80;99.90
25332;DHT22;13284;52.748;13.452;2023-10-19T11:54:04;8.70;99.90
25332;DHT22;13284;52.748;13.452;2023-10-19T11:56:31;8.70;99.90
25332;DHT22;13284;52.748;13.452;2023-10-19T11:58:57;8.70;99.90
25332;DHT22;13284;52.748;13.452;2023-10-19T12:01:23;8.50;99.90
25332;DHT22;13284;52.748;13.452;2023-10-19T12:03:50;8.50;99.90
25332;DHT22;13284;52.748;13.452;2023-10-19T12:06:19;8.40;99.90
25332;DHT22;13284;52.748;13.452;2023-10-19T12:08:44;8.50;99.90
25332;DHT22;13284;52.748;13.452;2023-10-19T12:11:10;8.50;99.90
25332;DHT22;13284;52.748;13.452;2023-10-19T12:13:45;8.50;99.90
25332;DHT22;13284;52.748;13.452;2023-10-19T12:16:12;8.50;99.90
25332;DHT22;13284;52.748;13.452;2023-10-19T12:18:43;8.60;99.90
25332;DHT22;13284;52.748;13.452;2023-10-19T12:21:10;8.70;99.90
25332;DHT22;13284;52.748;13.452;2023-10-19T12:23:54;8.60;99.90
25332;DHT22;13284;52.748;13.452;2023-10-19T12:26:24;8.50;99.90
25332;DHT22;13284;52.748;13.452;2023-10-19T12:28:52;8.60;99.90
25332;DHT22;13284;52.748;13.452;2023-10-19T12:31:24;8.50;99.90
25332;DHT22;13284;52.748;13.452;2023-10-19T12:34:41;8.50;99.90
25332;DHT22;13284;52.748;13.452;2023-10-19T12:37:57;8.40;99.90
25332;DHT22;13284;52.748;13.452;2023-10-19T12:40:23;8.50;99.90
25332;DHT22;13284;52.748;13.452;2023-10-19T12:42:55;8.40;99.90
25332;DHT22;13284;52.748;13.452;2023-10-19T12:45:27;8.40;99.90
25332;DHT22;13284;52.748;13.452;2023-10-19T12:47:53;8.40;99.90
25332;DHT22;13284;52.748;13.452;2023-10-19T12:50:19;8.40;99.90
25332;DHT22;13284;52.748;13.452;2023-10-19T12:52:49;8.40;99.90
25332;DHT22;13284;52.748;13.452;2023-10-19T12:55:16;8.50;99.90
25332;DHT22;13284;52.748;13.452;2023-10-19T12:57:42;8.40;99.90
25332;DHT22;13284;52.748;13.452;2023-10-19T13:00:08;8.40;99.90
25332;DHT22;13284;52.748;13.452;2023-10-19T13:02:49;8.30;99.90
25332;DHT22;13284;52.748;13.452;2023-10-19T13:05:15;8.40;99.90
25332;DHT22;13284;52.748;13.452;2023-10-19T13:07:46;8.40;99.90
25332;DHT22;13284;52.748;13.452;2023-10-19T13:10:12;8.40;99.90
25332;DHT22;13284;52.748;13.452;2023-10-19T13:12:37;8.40;99.90
25332;DHT22;13284;52.748;13.452;2023-10-19T13:15:04;8.30;99.90
25332;DHT22;13284;52.748;13.452;2023-10-19T13:17:38;8.30;99.90
25332;DHT22;13284;52.748;13.452;2023-10-19T13:20:04;8.30;99.90
25332;DHT22;13284;52.748;13.452;2023-10-19T13:22:41;8.30;99.90
25332;DHT22;13284;52.748;13.452;2023-10-19T13:25:07;8.30;99.90
25332;DHT22;13284;52.748;13.452;2023-10-19T13:27:43;8.30;99.90
25332;DHT22;13284;52.748;13.452;2023-10-19T13:30:11;8.30;99.90
25332;DHT22;13284;52.748;13.452;2023-10-19T13:32:38;8.30;99.90
25332;DHT22;13284;52.748;13.452;2023-10-19T13:35:05;8.20;99.90
25332;DHT22;13284;52.748;13.452;2023-10-19T13:37:30;8.20;99.90
25332;DHT22;13284;52.748;13.452;2023-10-19T13:39:59;8.10;99.90
25332;DHT22;13284;52.748;13.452;2023-10-19T13:42:25;8.20;99.90
25332;DHT22;13284;52.748;13.452;2023-10-19T13:44:50;8.10;99.90
25332;DHT22;13284;52.748;13.452;2023-10-19T13:47:18;8.10;99.90
25332;DHT22;13284;52.748;13.452;2023-10-19T13:49:43;8.10;99.90
25332;DHT22;13284;52.748;13.452;2023-10-19T13:52:09;8.10;99.90
25332;DHT22;13284;52.748;13.452;2023-10-19T13:54:35;8.10;99.90
25332;DHT22;13284;52.748;13.452;2023-10-19T13:57:02;8.00;99.90
25332;DHT22;13284;52.748;13.452;2023-10-19T13:59:37;8.00;99.90
25332;DHT22;13284;52.748;13.452;2023-10-19T14:02:03;8.00;99.90
25332;DHT22;13284;52.748;13.452;2023-10-19T14:04:28;8.00;99.90
25332;DHT22;13284;52.748;13.452;2023-10-19T14:06:54;8.00;99.90
25332;DHT22;13284;52.748;13.452;2023-10-19T14:09:19;8.00;99.90
25332;DHT22;13284;52.748;13.452;2023-10-19T14:11:45;8.00;99.90
25332;DHT22;13284;52.748;13.452;2023-10-19T14:14:11;8.00;99.90
25332;DHT22;13284;52.748;13.452;2023-10-19T14:16:37;8.00;99.90
25332;DHT22;13284;52.748;13.452;2023-10-19T14:19:04;7.90;99.90
25332;DHT22;13284;52.748;13.452;2023-10-19T14:21:30;7.90;99.90
25332;DHT22;13284;52.748;13.452;2023-10-19T14:23:57;7.90;99.90
25332;DHT22;13284;52.748;13.452;2023-10-19T14:26:25;7.90;99.90
25332;DHT22;13284;52.748;13.452;2023-10-19T14:28:51;7.90;99.90
25332;DHT22;13284;52.748;13.452;2023-10-19T14:31:16;8.00;99.90
25332;DHT22;13284;52.748;13.452;2023-10-19T14:33:42;7.90;99.90
25332;DHT22;13284;52.748;13.452;2023-10-19T14:36:09;7.90;99.90
25332;DHT22;13284;52.748;13.452;2023-10-19T14:38:39;7.90;99.90
25332;DHT22;13284;52.748;13.452;2023-10-19T14:41:08;7.90;99.90
25332;DHT22;13284;52.748;13.452;2023-10-19T14:43:34;7.90;99.90
25332;DHT22;13284;52.748;13.452;2023-10-19T14:46:01;7.90;99.90
25332;DHT22;13284;52.748;13.452;2023-10-19T14:48:47;7.90;99.90
25332;DHT22;13284;52.748;13.452;2023-10-19T14:51:13;7.90;99.90
25332;DHT22;13284;52.748;13.452;2023-10-19T14:53:41;7.90;99.90
25332;DHT22;13284;52.748;13.452;2023-10-19T14:56:08;7.80;99.90
25332;DHT22;13284;52.748;13.452;2023-10-19T14:58:34;7.80;99.90
25332;DHT22;13284;52.748;13.452;2023-10-19T15:01:02;7.90;99.90
25332;DHT22;13284;52.748;13.452;2023-10-19T15:03:35;7.90;99.90
25332;DHT22;13284;52.748;13.452;2023-10-19T15:06:01;7.90;99.90
25332;DHT22;13284;52.748;13.452;2023-10-19T15:08:29;7.80;99.90
25332;DHT22;13284;52.748;13.452;2023-10-19T15:10:58;7.90;99.90
25332;DHT22;13284;52.748;13.452;2023-10-19T15:13:24;7.80;99.90
25332;DHT22;13284;52.748;13.452;2023-10-19T15:16:07;7.90;99.90
25332;DHT22;13284;52.748;13.452;2023-10-19T15:18:33;7.90;99.90
25332;DHT22;13284;52.748;13.452;2023-10-19T15:21:10;8.00;99.90
25332;DHT22;13284;52.748;13.452;2023-10-19T15:23:36;8.00;99.90
25332;DHT22;13284;52.748;13.452;2023-10-19T15:26:02;8.00;99.90
25332;DHT22;13284;52.748;13.452;2023-10-19T15:28:29;8.00;99.90
25332;DHT22;13284;52.748;13.452;2023-10-19T15:31:00;8.00;99.90
25332;DHT22;13284;52.748;13.452;2023-10-19T15:33:26;7.90;99.90
25332;DHT22;13284;52.748;13.452;2023-10-19T15:35:52;7.90;99.90
25332;DHT22;13284;52.748;13.452;2023-10-19T15:38:20;8.00;99.90
25332;DHT22;13284;52.748;13.452;2023-10-19T15:40:46;7.90;99.90
25332;DHT22;13284;52.748;13.452;2023-10-19T15:43:11;7.80;99.90
25332;DHT22;13284;52.748;13.452;2023-10-19T15:45:37;7.90;99.90
25332;DHT22;13284;52.748;13.452;2023-10-19T15:48:05;7.80;99.90
25332;DHT22;13284;52.748;13.452;2023-10-19T15:50:31;7.90;99.90
25332;DHT22;13284;52.748;13.452;2023-10-19T15:53:00;7.80;99.90